sensor_id;sensor_type;location;lat;lon;timestamp;P1;durP1;ratioP1;P2;durP2;ratioP2
36371;SDS011;22398;51.346;12.372;2024-02-15T00:01:49;7.03;;;3.90;;
36371;SDS011;22398;51.346;12.372;2024-02-15T00:06:53;7.90;;;3.72;;
36371;SDS011;22398;51.346;12.372;2024-02-15T00:11:57;6.60;;;3.70;;
36371;SDS011;22398;51.346;12.372;2024-02-15T00:17:01;4.28;;;3.15;;
36371;SDS011;22398;51.346;12.372;2024-02-15T00:22:07;5.90;;;3.75;;
36371;SDS011;22398;51.346;12.372;2024-02-15T00:32:14;6.55;;;3.95;;
36371;SDS011;22398;51.346;12.372;2024-02-15T00:37:20;8.82;;;3.53;;
36371;SDS011;22398;51.346;12.372;2024-02-15T00:42:24;4.68;;;3.10;;
36371;SDS011;22398;51.346;12.372;2024-02-15T00:47:27;5.88;;;3.13;;
36371;SDS011;22398;51.346;12.372;2024-02-15T00:52:33;6.57;;;2.95;;
36371;SDS011;22398;51.346;12.372;2024-02-15T00:57:37;5.75;;;3.45;;
36371;SDS011;22398;51.346;12.372;2024-02-15T01:02:41;4.68;;;2.92;;
36371;SDS011;22398;51.346;12.372;2024-02-15T01:07:46;5.32;;;2.55;;
36371;SDS011;22398;51.346;12.372;2024-02-15T01:12:50;4.20;;;2.83;;
36371;SDS011;22398;51.346;12.372;2024-02-15T01:17:54;3.30;;;2.20;;
36371;SDS011;22398;51.346;12.372;2024-02-15T01:22:59;3.55;;;2.35;;
36371;SDS011;22398;51.346;12.372;2024-02-15T01:28:02;4.57;;;2.63;;
36371;SDS011;22398;51.346;12.372;2024-02-15T01:33:06;5.60;;;2.60;;
36371;SDS011;22398;51.346;12.372;2024-02-15T01:38:11;4.07;;;2.70;;
36371;SDS011;22398;51.346;12.372;2024-02-15T01:43:15;4.93;;;2.37;;
36371;SDS011;22398;51.346;12.372;2024-02-15T01:48:18;7.80;;;2.72;;
36371;SDS011;22398;51.346;12.372;2024-02-15T01:53:24;4.68;;;2.00;;
36371;SDS011;22398;51.346;12.372;2024-02-15T01:58:29;2.53;;;2.05;;
36371;SDS011;22398;51.346;12.372;2024-02-15T02:03:33;3.60;;;1.80;;
36371;SDS011;22398;51.346;12.372;2024-02-15T02:08:39;5.53;;;2.28;;
36371;SDS011;22398;51.346;12.372;2024-02-15T02:13:42;3.60;;;2.10;;
36371;SDS011;22398;51.346;12.372;2024-02-15T02:18:45;2.70;;;1.60;;
36371;SDS011;22398;51.346;12.372;2024-02-15T02:23:52;3.28;;;2.25;;
36371;SDS011;22398;51.346;12.372;2024-02-15T02:28:57;3.20;;;1.80;;
36371;SDS011;22398;51.346;12.372;2024-02-15T02:34:01;3.13;;;1.70;;
36371;SDS011;22398;51.346;12.372;2024-02-15T02:39:05;2.15;;;1.63;;
36371;SDS011;22398;51.346;12.372;2024-02-15T02:44:10;2.13;;;1.73;;
36371;SDS011;22398;51.346;12.372;2024-02-15T02:49:14;2.33;;;1.40;;
36371;SDS011;22398;51.346;12.372;2024-02-15T02:54:17;2.88;;;1.60;;
36371;SDS011;22398;51.346;12.372;2024-02-15T02:59:22;2.92;;;1.35;;
36371;SDS011;22398;51.346;12.372;2024-02-15T03:09:30;1.92;;;1.35;;
36371;SDS011;22398;51.346;12.372;2024-02-15T03:14:36;3.30;;;1.80;;
36371;SDS011;22398;51.346;12.372;2024-02-15T03:19:43;2.42;;;1.30;;
36371;SDS011;22398;51.346;12.372;2024-02-15T03:24:46;2.70;;;1.25;;
36371;SDS011;22398;51.346;12.372;2024-02-15T03:29:51;2.45;;;1.40;;
36371;SDS011;22398;51.346;12.372;2024-02-15T03:34:59;2.88;;;1.73;;
36371;SDS011;22398;51.346;12.372;2024-02-15T03:40:03;2.17;;;1.30;;
36371;SDS011;22398;51.346;12.372;2024-02-15T03:45:10;1.73;;;1.35;;
36371;SDS011;22398;51.346;12.372;2024-02-15T03:50:13;1.75;;;1.20;;
36371;SDS011;22398;51.346;12.372;2024-02-15T03:55:18;4.45;;;2.05;;
36371;SDS011;22398;51.346;12.372;2024-02-15T04:00:25;2.28;;;1.67;;
36371;SDS011;22398;51.346;12.372;2024-02-15T04:05:29;5.70;;;1.50;;
36371;SDS011;22398;51.346;12.372;2024-02-15T04:10:32;4.10;;;1.20;;
36371;SDS011;22398;51.346;12.372;2024-02-15T04:15:38;3.13;;;1.50;;
36371;SDS011;22398;51.346;12.372;2024-02-15T04:20:41;2.23;;;1.63;;
36371;SDS011;22398;51.346;12.372;2024-02-15T04:25:48;4.65;;;1.33;;
36371;SDS011;22398;51.346;12.372;2024-02-15T04:30:55;1.58;;;1.13;;
36371;SDS011;22398;51.346;12.372;2024-02-15T04:35:58;1.47;;;1.13;;
36371;SDS011;22398;51.346;12.372;2024-02-15T04:41:04;1.83;;;1.25;;
36371;SDS011;22398;51.346;12.372;2024-02-15T04:46:13;1.42;;;0.90;;
36371;SDS011;22398;51.346;12.372;2024-02-15T04:51:16;2.05;;;1.30;;
36371;SDS011;22398;51.346;12.372;2024-02-15T04:56:21;2.03;;;1.48;;
36371;SDS011;22398;51.346;12.372;2024-02-15T05:01:26;1.60;;;0.75;;
36371;SDS011;22398;51.346;12.372;2024-02-15T05:06:30;1.63;;;0.88;;
36371;SDS011;22398;51.346;12.372;2024-02-15T05:11:34;2.83;;;1.10;;
36371;SDS011;22398;51.346;12.372;2024-02-15T05:16:39;3.13;;;1.02;;
36371;SDS011;22398;51.346;12.372;2024-02-15T05:21:45;1.90;;;1.08;;
36371;SDS011;22398;51.346;12.372;2024-02-15T05:26:49;1.83;;;1.10;;
36371;SDS011;22398;51.346;12.372;2024-02-15T05:31:54;1.10;;;0.90;;
36371;SDS011;22398;51.346;12.372;2024-02-15T05:36:58;1.63;;;0.90;;
36371;SDS011;22398;51.346;12.372;2024-02-15T05:42:02;1.83;;;0.80;;
36371;SDS011;22398;51.346;12.372;2024-02-15T05:47:07;3.50;;;1.13;;
36371;SDS011;22398;51.346;12.372;2024-02-15T05:52:13;2.60;;;1.33;;
36371;SDS011;22398;51.346;12.372;2024-02-15T05:57:20;2.28;;;1.48;;
36371;SDS011;22398;51.346;12.372;2024-02-15T06:02:25;1.20;;;1.05;;
36371;SDS011;22398;51.346;12.372;2024-02-15T06:07:29;4.07;;;1.17;;
36371;SDS011;22398;51.346;12.372;2024-02-15T06:12:33;6.05;;;1.55;;
36371;SDS011;22398;51.346;12.372;2024-02-15T06:17:38;3.55;;;1.70;;
36371;SDS011;22398;51.346;12.372;2024-02-15T06:22:42;2.92;;;1.35;;
36371;SDS011;22398;51.346;12.372;2024-02-15T06:27:45;3.72;;;1.90;;
36371;SDS011;22398;51.346;12.372;2024-02-15T06:32:54;1.88;;;1.30;;
36371;SDS011;22398;51.346;12.372;2024-02-15T06:38:15;3.05;;;1.60;;
36371;SDS011;22398;51.346;12.372;2024-02-15T06:43:36;5.38;;;1.80;;
36371;SDS011;22398;51.346;12.372;2024-02-15T06:48:43;3.20;;;1.38;;
36371;SDS011;22398;51.346;12.372;2024-02-15T06:53:47;3.58;;;1.90;;
36371;SDS011;22398;51.346;12.372;2024-02-15T06:58:51;3.53;;;1.57;;
36371;SDS011;22398;51.346;12.372;2024-02-15T07:03:57;3.90;;;1.70;;
36371;SDS011;22398;51.346;12.372;2024-02-15T07:09:01;4.80;;;2.13;;
36371;SDS011;22398;51.346;12.372;2024-02-15T07:14:05;2.55;;;1.60;;
36371;SDS011;22398;51.346;12.372;2024-02-15T07:24:15;3.25;;;1.80;;
36371;SDS011;22398;51.346;12.372;2024-02-15T07:29:19;5.63;;;2.78;;
36371;SDS011;22398;51.346;12.372;2024-02-15T07:34:26;3.70;;;1.90;;
36371;SDS011;22398;51.346;12.372;2024-02-15T07:39:30;3.33;;;2.00;;
36371;SDS011;22398;51.346;12.372;2024-02-15T07:44:33;3.75;;;1.77;;
36371;SDS011;22398;51.346;12.372;2024-02-15T07:49:39;2.53;;;1.77;;
36371;SDS011;22398;51.346;12.372;2024-02-15T07:54:45;4.68;;;2.30;;
36371;SDS011;22398;51.346;12.372;2024-02-15T07:59:48;3.50;;;1.45;;
36371;SDS011;22398;51.346;12.372;2024-02-15T08:04:53;3.53;;;1.90;;
36371;SDS011;22398;51.346;12.372;2024-02-15T08:09:57;3.47;;;1.90;;
36371;SDS011;22398;51.346;12.372;2024-02-15T08:15:01;6.45;;;1.88;;
36371;SDS011;22398;51.346;12.372;2024-02-15T08:25:13;8.05;;;2.17;;
36371;SDS011;22398;51.346;12.372;2024-02-15T08:30:19;4.43;;;1.48;;
36371;SDS011;22398;51.346;12.372;2024-02-15T08:35:27;10.60;;;2.05;;
36371;SDS011;22398;51.346;12.372;2024-02-15T08:40:31;6.93;;;1.73;;
36371;SDS011;22398;51.346;12.372;2024-02-15T08:45:35;5.82;;;1.80;;
36371;SDS011;22398;51.346;12.372;2024-02-15T08:50:40;3.50;;;1.80;;
36371;SDS011;22398;51.346;12.372;2024-02-15T08:55:47;3.60;;;1.50;;
36371;SDS011;22398;51.346;12.372;2024-02-15T09:00:51;2.60;;;1.60;;
36371;SDS011;22398;51.346;12.372;2024-02-15T09:05:57;2.88;;;1.58;;
36371;SDS011;22398;51.346;12.372;2024-02-15T09:11:05;1.98;;;1.40;;
36371;SDS011;22398;51.346;12.372;2024-02-15T09:16:13;3.58;;;2.00;;
36371;SDS011;22398;51.346;12.372;2024-02-15T09:21:18;5.82;;;2.03;;
36371;SDS011;22398;51.346;12.372;2024-02-15T09:26:23;8.23;;;1.70;;
36371;SDS011;22398;51.346;12.372;2024-02-15T09:31:26;9.18;;;1.92;;
36371;SDS011;22398;51.346;12.372;2024-02-15T09:36:34;3.45;;;1.70;;
36371;SDS011;22398;51.346;12.372;2024-02-15T09:41:39;2.45;;;1.70;;
36371;SDS011;22398;51.346;12.372;2024-02-15T09:46:44;4.85;;;2.17;;
36371;SDS011;22398;51.346;12.372;2024-02-15T09:51:50;3.25;;;2.35;;
36371;SDS011;22398;51.346;12.372;2024-02-15T09:56:55;2.88;;;1.40;;
36371;SDS011;22398;51.346;12.372;2024-02-15T10:02:03;4.68;;;1.75;;
36371;SDS011;22398;51.346;12.372;2024-02-15T10:07:14;5.00;;;2.13;;
36371;SDS011;22398;51.346;12.372;2024-02-15T10:12:20;4.90;;;1.70;;
36371;SDS011;22398;51.346;12.372;2024-02-15T10:17:24;7.75;;;3.15;;
36371;SDS011;22398;51.346;12.372;2024-02-15T10:22:29;5.30;;;2.67;;
36371;SDS011;22398;51.346;12.372;2024-02-15T10:27:33;4.60;;;1.67;;
36371;SDS011;22398;51.346;12.372;2024-02-15T10:32:40;3.88;;;1.60;;
36371;SDS011;22398;51.346;12.372;2024-02-15T10:37:45;2.92;;;1.50;;
36371;SDS011;22398;51.346;12.372;2024-02-15T10:42:51;2.55;;;1.70;;
36371;SDS011;22398;51.346;12.372;2024-02-15T10:47:54;5.68;;;1.70;;
36371;SDS011;22398;51.346;12.372;2024-02-15T10:53:00;2.88;;;1.60;;
36371;SDS011;22398;51.346;12.372;2024-02-15T11:03:23;2.70;;;1.52;;
36371;SDS011;22398;51.346;12.372;2024-02-15T11:08:34;3.95;;;1.70;;
36371;SDS011;22398;51.346;12.372;2024-02-15T11:13:39;3.55;;;1.52;;
36371;SDS011;22398;51.346;12.372;2024-02-15T11:18:45;7.93;;;2.60;;
36371;SDS011;22398;51.346;12.372;2024-02-15T11:23:54;4.15;;;2.70;;
36371;SDS011;22398;51.346;12.372;2024-02-15T11:28:58;5.80;;;2.00;;
36371;SDS011;22398;51.346;12.372;2024-02-15T11:34:13;5.47;;;2.13;;
36371;SDS011;22398;51.346;12.372;2024-02-15T11:39:59;5.95;;;1.70;;
36371;SDS011;22398;51.346;12.372;2024-02-15T11:45:05;3.95;;;2.50;;
36371;SDS011;22398;51.346;12.372;2024-02-15T11:50:10;5.10;;;2.80;;
36371;SDS011;22398;51.346;12.372;2024-02-15T11:55:21;6.13;;;2.00;;
36371;SDS011;22398;51.346;12.372;2024-02-15T12:00:25;3.53;;;1.40;;
36371;SDS011;22398;51.346;12.372;2024-02-15T12:05:46;2.53;;;1.63;;
36371;SDS011;22398;51.346;12.372;2024-02-15T12:11:13;2.08;;;1.45;;
36371;SDS011;22398;51.346;12.372;2024-02-15T12:16:35;5.63;;;1.60;;
36371;SDS011;22398;51.346;12.372;2024-02-15T12:21:56;3.05;;;1.40;;
36371;SDS011;22398;51.346;12.372;2024-02-15T12:27:05;2.72;;;1.40;;
36371;SDS011;22398;51.346;12.372;2024-02-15T12:32:09;3.35;;;1.60;;
36371;SDS011;22398;51.346;12.372;2024-02-15T12:37:12;3.72;;;1.45;;
36371;SDS011;22398;51.346;12.372;2024-02-15T12:42:17;2.78;;;1.40;;
36371;SDS011;22398;51.346;12.372;2024-02-15T12:47:24;4.93;;;1.05;;
36371;SDS011;22398;51.346;12.372;2024-02-15T12:52:32;3.13;;;1.25;;
36371;SDS011;22398;51.346;12.372;2024-02-15T12:57:38;2.40;;;1.25;;
36371;SDS011;22398;51.346;12.372;2024-02-15T13:02:43;5.75;;;1.33;;
36371;SDS011;22398;51.346;12.372;2024-02-15T13:07:48;7.57;;;1.25;;
36371;SDS011;22398;51.346;12.372;2024-02-15T13:12:54;2.50;;;1.20;;
36371;SDS011;22398;51.346;12.372;2024-02-15T13:17:59;2.67;;;1.33;;
36371;SDS011;22398;51.346;12.372;2024-02-15T13:23:08;2.85;;;1.10;;
36371;SDS011;22398;51.346;12.372;2024-02-15T13:28:18;3.95;;;1.23;;
36371;SDS011;22398;51.346;12.372;2024-02-15T13:33:21;4.25;;;1.45;;
36371;SDS011;22398;51.346;12.372;2024-02-15T13:38:28;5.03;;;1.20;;
36371;SDS011;22398;51.346;12.372;2024-02-15T13:43:33;1.25;;;0.90;;
36371;SDS011;22398;51.346;12.372;2024-02-15T13:48:36;1.63;;;0.85;;
36371;SDS011;22398;51.346;12.372;2024-02-15T13:53:40;1.52;;;0.77;;
36371;SDS011;22398;51.346;12.372;2024-02-15T13:58:46;3.40;;;0.70;;
36371;SDS011;22398;51.346;12.372;2024-02-15T14:03:49;1.95;;;1.13;;
36371;SDS011;22398;51.346;12.372;2024-02-15T14:08:53;2.05;;;0.90;;
36371;SDS011;22398;51.346;12.372;2024-02-15T14:13:58;1.55;;;0.80;;
36371;SDS011;22398;51.346;12.372;2024-02-15T14:19:01;0.90;;;0.80;;
36371;SDS011;22398;51.346;12.372;2024-02-15T14:24:06;1.65;;;0.88;;
36371;SDS011;22398;51.346;12.372;2024-02-15T14:34:16;1.00;;;0.80;;
36371;SDS011;22398;51.346;12.372;2024-02-15T14:39:22;1.48;;;0.90;;
36371;SDS011;22398;51.346;12.372;2024-02-15T14:44:27;1.27;;;0.95;;
36371;SDS011;22398;51.346;12.372;2024-02-15T14:49:31;1.05;;;0.73;;
36371;SDS011;22398;51.346;12.372;2024-02-15T14:54:34;1.30;;;0.90;;
36371;SDS011;22398;51.346;12.372;2024-02-15T14:59:40;2.58;;;0.80;;
36371;SDS011;22398;51.346;12.372;2024-02-15T15:04:44;3.15;;;0.98;;
36371;SDS011;22398;51.346;12.372;2024-02-15T15:10:12;1.08;;;0.60;;
36371;SDS011;22398;51.346;12.372;2024-02-15T15:15:33;3.90;;;0.80;;
36371;SDS011;22398;51.346;12.372;2024-02-15T15:20:38;4.20;;;0.90;;
36371;SDS011;22398;51.346;12.372;2024-02-15T15:25:42;2.90;;;0.80;;
36371;SDS011;22398;51.346;12.372;2024-02-15T15:30:48;0.93;;;0.60;;
36371;SDS011;22398;51.346;12.372;2024-02-15T15:35:52;2.67;;;0.90;;
36371;SDS011;22398;51.346;12.372;2024-02-15T15:40:56;1.50;;;0.80;;
36371;SDS011;22398;51.346;12.372;2024-02-15T15:46:02;1.27;;;0.77;;
36371;SDS011;22398;51.346;12.372;2024-02-15T15:51:06;3.53;;;1.00;;
36371;SDS011;22398;51.346;12.372;2024-02-15T15:56:12;2.83;;;0.77;;
36371;SDS011;22398;51.346;12.372;2024-02-15T16:01:18;6.13;;;1.15;;
36371;SDS011;22398;51.346;12.372;2024-02-15T16:06:21;2.42;;;1.00;;
36371;SDS011;22398;51.346;12.372;2024-02-15T16:11:25;1.55;;;0.95;;
36371;SDS011;22398;51.346;12.372;2024-02-15T16:16:30;1.13;;;0.68;;
36371;SDS011;22398;51.346;12.372;2024-02-15T16:21:34;5.07;;;1.35;;
36371;SDS011;22398;51.346;12.372;2024-02-15T16:26:40;2.53;;;0.90;;
36371;SDS011;22398;51.346;12.372;2024-02-15T16:31:45;1.05;;;0.80;;
36371;SDS011;22398;51.346;12.372;2024-02-15T16:36:49;1.67;;;1.08;;
36371;SDS011;22398;51.346;12.372;2024-02-15T16:41:52;2.38;;;1.10;;
36371;SDS011;22398;51.346;12.372;2024-02-15T16:46:58;2.60;;;1.10;;
36371;SDS011;22398;51.346;12.372;2024-02-15T16:52:01;2.92;;;1.23;;
36371;SDS011;22398;51.346;12.372;2024-02-15T16:57:05;2.53;;;1.10;;
36371;SDS011;22398;51.346;12.372;2024-02-15T17:02:17;2.53;;;1.20;;
36371;SDS011;22398;51.346;12.372;2024-02-15T17:07:21;8.40;;;1.85;;
36371;SDS011;22398;51.346;12.372;2024-02-15T17:12:26;4.13;;;1.90;;
36371;SDS011;22398;51.346;12.372;2024-02-15T17:17:32;4.88;;;2.58;;
36371;SDS011;22398;51.346;12.372;2024-02-15T17:22:36;9.15;;;2.65;;
36371;SDS011;22398;51.346;12.372;2024-02-15T17:27:40;4.63;;;2.65;;
36371;SDS011;22398;51.346;12.372;2024-02-15T17:32:46;4.85;;;1.90;;
36371;SDS011;22398;51.346;12.372;2024-02-15T17:37:50;7.00;;;2.17;;
36371;SDS011;22398;51.346;12.372;2024-02-15T17:42:53;4.10;;;2.28;;
36371;SDS011;22398;51.346;12.372;2024-02-15T17:47:58;6.75;;;2.65;;
36371;SDS011;22398;51.346;12.372;2024-02-15T17:58:06;17.60;;;2.65;;
36371;SDS011;22398;51.346;12.372;2024-02-15T18:03:10;5.82;;;3.50;;
36371;SDS011;22398;51.346;12.372;2024-02-15T18:08:15;4.18;;;2.25;;
36371;SDS011;22398;51.346;12.372;2024-02-15T18:13:19;6.80;;;3.07;;
36371;SDS011;22398;51.346;12.372;2024-02-15T18:18:24;9.85;;;3.85;;
36371;SDS011;22398;51.346;12.372;2024-02-15T18:23:30;4.22;;;2.75;;
36371;SDS011;22398;51.346;12.372;2024-02-15T18:28:34;6.22;;;3.33;;
36371;SDS011;22398;51.346;12.372;2024-02-15T18:33:39;9.18;;;3.85;;
36371;SDS011;22398;51.346;12.372;2024-02-15T18:43:48;6.70;;;3.40;;
36371;SDS011;22398;51.346;12.372;2024-02-15T18:48:55;10.35;;;4.53;;
36371;SDS011;22398;51.346;12.372;2024-02-15T18:53:58;7.18;;;4.32;;
36371;SDS011;22398;51.346;12.372;2024-02-15T18:59:02;6.43;;;4.00;;
36371;SDS011;22398;51.346;12.372;2024-02-15T19:04:09;8.60;;;4.38;;
36371;SDS011;22398;51.346;12.372;2024-02-15T19:09:13;7.22;;;5.03;;
36371;SDS011;22398;51.346;12.372;2024-02-15T19:14:19;12.55;;;4.53;;
36371;SDS011;22398;51.346;12.372;2024-02-15T19:19:26;8.35;;;4.18;;
36371;SDS011;22398;51.346;12.372;2024-02-15T19:24:29;8.63;;;4.97;;
36371;SDS011;22398;51.346;12.372;2024-02-15T19:29:33;15.13;;;4.88;;
36371;SDS011;22398;51.346;12.372;2024-02-15T19:34:38;7.53;;;3.67;;
36371;SDS011;22398;51.346;12.372;2024-02-15T19:39:41;8.83;;;4.00;;
36371;SDS011;22398;51.346;12.372;2024-02-15T19:44:48;10.98;;;3.80;;
36371;SDS011;22398;51.346;12.372;2024-02-15T19:49:53;7.03;;;3.42;;
36371;SDS011;22398;51.346;12.372;2024-02-15T19:54:57;8.70;;;3.55;;
36371;SDS011;22398;51.346;12.372;2024-02-15T20:00:00;8.15;;;4.30;;
36371;SDS011;22398;51.346;12.372;2024-02-15T20:05:06;8.70;;;4.53;;
36371;SDS011;22398;51.346;12.372;2024-02-15T20:10:10;7.43;;;4.38;;
36371;SDS011;22398;51.346;12.372;2024-02-15T20:15:14;10.80;;;5.18;;
36371;SDS011;22398;51.346;12.372;2024-02-15T20:20:19;9.50;;;5.43;;
36371;SDS011;22398;51.346;12.372;2024-02-15T20:25:23;8.60;;;4.65;;
36371;SDS011;22398;51.346;12.372;2024-02-15T20:30:26;6.70;;;4.53;;
36371;SDS011;22398;51.346;12.372;2024-02-15T20:35:31;7.85;;;4.05;;
36371;SDS011;22398;51.346;12.372;2024-02-15T20:40:34;8.77;;;4.47;;
36371;SDS011;22398;51.346;12.372;2024-02-15T20:45:38;6.95;;;3.80;;
36371;SDS011;22398;51.346;12.372;2024-02-15T20:50:43;5.97;;;4.03;;
36371;SDS011;22398;51.346;12.372;2024-02-15T20:55:48;7.50;;;4.38;;
36371;SDS011;22398;51.346;12.372;2024-02-15T21:00:51;6.38;;;3.75;;
36371;SDS011;22398;51.346;12.372;2024-02-15T21:05:57;6.80;;;4.07;;
36371;SDS011;22398;51.346;12.372;2024-02-15T21:11:01;7.38;;;4.88;;
36371;SDS011;22398;51.346;12.372;2024-02-15T21:16:05;9.30;;;3.67;;
36371;SDS011;22398;51.346;12.372;2024-02-15T21:21:10;6.15;;;3.88;;
36371;SDS011;22398;51.346;12.372;2024-02-15T21:26:14;9.93;;;4.07;;
36371;SDS011;22398;51.346;12.372;2024-02-15T21:31:17;9.70;;;4.47;;
36371;SDS011;22398;51.346;12.372;2024-02-15T21:36:22;7.60;;;3.92;;
36371;SDS011;22398;51.346;12.372;2024-02-15T21:41:26;6.97;;;4.32;;
36371;SDS011;22398;51.346;12.372;2024-02-15T21:46:29;7.75;;;3.78;;
36371;SDS011;22398;51.346;12.372;2024-02-15T21:51:34;7.00;;;4.13;;
36371;SDS011;22398;51.346;12.372;2024-02-15T21:56:37;8.57;;;4.40;;
36371;SDS011;22398;51.346;12.372;2024-02-15T22:01:41;7.53;;;4.28;;
36371;SDS011;22398;51.346;12.372;2024-02-15T22:06:46;8.90;;;4.47;;
36371;SDS011;22398;51.346;12.372;2024-02-15T22:11:49;7.60;;;4.22;;
36371;SDS011;22398;51.346;12.372;2024-02-15T22:16:53;10.30;;;4.20;;
36371;SDS011;22398;51.346;12.372;2024-02-15T22:21:58;9.52;;;4.25;;
36371;SDS011;22398;51.346;12.372;2024-02-15T22:27:01;10.57;;;4.80;;
36371;SDS011;22398;51.346;12.372;2024-02-15T22:32:07;7.07;;;4.40;;
36371;SDS011;22398;51.346;12.372;2024-02-15T22:37:13;6.50;;;3.92;;
36371;SDS011;22398;51.346;12.372;2024-02-15T22:42:17;10.43;;;4.78;;
36371;SDS011;22398;51.346;12.372;2024-02-15T22:47:21;6.45;;;3.50;;
36371;SDS011;22398;51.346;12.372;2024-02-15T22:52:26;9.23;;;3.70;;
36371;SDS011;22398;51.346;12.372;2024-02-15T22:57:33;5.07;;;3.50;;
36371;SDS011;22398;51.346;12.372;2024-02-15T23:02:36;7.22;;;3.40;;
36371;SDS011;22398;51.346;12.372;2024-02-15T23:07:41;6.88;;;3.92;;
36371;SDS011;22398;51.346;12.372;2024-02-15T23:12:45;5.85;;;3.40;;
36371;SDS011;22398;51.346;12.372;2024-02-15T23:17:49;8.63;;;3.60;;
36371;SDS011;22398;51.346;12.372;2024-02-15T23:22:54;7.45;;;3.75;;
36371;SDS011;22398;51.346;12.372;2024-02-15T23:27:57;7.20;;;3.78;;
36371;SDS011;22398;51.346;12.372;2024-02-15T23:33:02;8.63;;;4.38;;
36371;SDS011;22398;51.346;12.372;2024-02-15T23:38:10;9.60;;;3.78;;
36371;SDS011;22398;51.346;12.372;2024-02-15T23:43:31;7.22;;;4.05;;
36371;SDS011;22398;51.346;12.372;2024-02-15T23:48:35;6.45;;;3.58;;
36371;SDS011;22398;51.346;12.372;2024-02-15T23:53:43;6.40;;;3.72;;
36371;SDS011;22398;51.346;12.372;2024-02-15T23:58:46;5.60;;;3.67;;
